Terminal Aerodrome Forecast
Issued by NWS

Current Version | Previous Version | Graphics & Text | Print | Product List | Glossary On
Versions: 1 2 3 4 5 6 7 8 9 10 11 12 13 14 15 16 17 18 19 20 21 22 23 24 25 26
000
FTUS41 KRLX 021755
TAFCKB
TAF
KCKB 021755Z 0218/0318 00000KT P6SM OVC008
     FM030100 VRB03KT 6SM BR BKN015
     FM030200 VRB03KT P6SM BKN035
     FM030500 08004KT 6SM BR BKN050
     FM030600 09004KT 5SM BR BKN050
     FM031100 09004KT 6SM BR BKN040
     FM031200 09004KT P6SM BKN040
     FM031400 09004KT P6SM BKN025=

USA.gov is the U.S. government's official web portal to all federal, state and local government web resources and services.